Decoded Metar for KLOR (LOWE AHP/FT. RUC in AL, USA) (IATA:LOR) | Meteo·Mobile Aviation Weather
aviador You're here:

KLOR Decoded Metar

LOWE AHP/FT. RUC in AL, USA
Report Time2018-09-24 07:58:00
UTC Time2018-09-24 08:18:16
Flight Rules vfr VFR
WindCalm
Visibility9999 m
Phenomena:N/A
Clouds:N/A
CeilingNone
Temp22°C (ISA +7)
Dew Point22°C (100% RH)
QNH1016 hPa
Density Alt1,362 ft
Elevation243 ft
Report Wrong Elevation
Raw Report
KLOR 240758Z AUTO 00000KT 10SM CLR 22/22 A2999 RMK AO2 SLP136
T02230218=

Extra information for KLOR:More info

Metar Taf Metar & Taf Last 4 Metars F.Rules Stats Wind Profile Meteogram Temp Stats Airport Information Weather charts Add Link Nearby VenuesMetar ALERT Operation Metar Decoded Social comments

AIRNAV info for KLOR